Time;durP1;ratioP1;P1;durP2;ratioP2;P2;SDS_P1;SDS_P2;PMS_P1;PMS_P2;Temp;Humidity;BMP_temperature;BMP_pressure;BME280_temperature;BME280_humidity;BME280_pressure;Samples;Min_cycle;Max_cycle;Signal;HPM_P1;HPM_P2
2022/08/12 00:44:23;;;;;;;4.53;2.90;;;30.20;28.50;;;;;;5993094;29;20060;-72
2022/08/12 00:47:24;;;;;;;6.05;2.17;;;30.10;28.50;;;;;;6009686;29;20042;-71
2022/08/12 00:50:27;;;;;;;3.75;2.70;;;30.10;28.50;;;;;;5999345;29;20045;-72
2022/08/12 00:53:29;;;;;;;10.63;2.80;;;30.00;28.50;;;;;;5992638;29;20041;-73
2022/08/12 00:56:30;;;;;;;8.40;3.08;;;29.90;28.50;;;;;;6008254;29;20435;-72
2022/08/12 00:59:33;;;;;;;7.05;3.13;;;30.10;28.60;;;;;;5993034;29;20125;-72
2022/08/12 01:02:41;;;;;;;6.65;2.92;;;29.90;28.50;;;;;;6008798;29;20045;-72
2022/08/12 01:12:26;;;;;;;4.40;2.88;;;29.90;28.60;;;;;;5997638;29;20042;-71
2022/08/12 01:15:27;;;;;;;4.90;2.60;;;29.80;28.60;;;;;;6007999;29;20045;-72
2022/08/12 01:18:31;;;;;;;4.25;2.88;;;29.80;28.70;;;;;;6009627;29;20496;-72
2022/08/12 01:21:44;;;;;;;4.50;2.72;;;29.70;28.80;;;;;;5975449;29;20056;-71
2022/08/12 01:25:08;;;;;;;6.53;3.55;;;29.70;29.00;;;;;;6009404;29;20099;-72
2022/08/12 01:28:12;;;;;;;6.82;3.47;;;29.60;28.90;;;;;;6008163;29;20042;-72
2022/08/12 01:31:16;;;;;;;4.10;3.00;;;29.60;28.90;;;;;;6008585;29;20118;-72
2022/08/12 01:34:22;;;;;;;5.93;4.10;;;29.60;28.90;;;;;;6007983;29;20372;-72
2022/08/12 01:37:24;;;;;;;10.68;5.60;;;29.60;29.00;;;;;;6001284;29;20068;-72
2022/08/12 01:40:30;;;;;;;20.83;8.73;;;29.50;29.00;;;;;;5992081;29;20060;-72
2022/08/12 01:43:33;;;;;;;22.15;7.15;;;29.50;29.20;;;;;;6007610;29;20144;-71
2022/08/12 01:46:42;;;;;;;16.48;7.43;;;29.40;29.30;;;;;;6009129;29;20094;-72
2022/08/12 01:50:10;;;;;;;15.70;6.68;;;29.30;29.30;;;;;;6000208;29;20042;-72
2022/08/12 01:53:19;;;;;;;14.85;7.18;;;29.20;29.40;;;;;;6009448;29;20030;-72
2022/08/12 01:56:24;;;;;;;13.35;5.72;;;29.10;29.40;;;;;;6023927;29;20042;-71
2022/08/12 01:59:49;;;;;;;9.93;4.80;;;29.10;29.50;;;;;;6022362;29;20102;-72
2022/08/12 02:03:07;;;;;;;8.52;3.35;;;29.00;29.70;;;;;;6001982;29;20033;-72
2022/08/12 02:13:46;;;;;;;4.82;3.47;;;28.90;30.10;;;;;;6005594;29;20057;-72
2022/08/12 02:16:56;;;;;;;5.30;3.70;;;28.90;30.30;;;;;;6007447;29;20038;-72
2022/08/12 02:20:12;;;;;;;4.70;3.50;;;28.80;30.20;;;;;;6013196;29;20185;-72
2022/08/12 02:23:14;;;;;;;6.97;3.33;;;28.80;30.30;;;;;;6021686;29;20102;-72
2022/08/12 02:26:17;;;;;;;6.40;3.78;;;28.80;30.30;;;;;;6006716;29;20141;-72
2022/08/12 02:29:19;;;;;;;6.15;3.22;;;28.80;30.50;;;;;;6008243;29;20436;-73
2022/08/12 02:32:20;;;;;;;8.00;3.67;;;28.80;30.60;;;;;;6005278;29;20037;-71
2022/08/12 02:35:25;;;;;;;7.25;3.30;;;28.80;30.80;;;;;;6006626;29;20049;-71
2022/08/12 02:38:27;;;;;;;4.10;2.90;;;28.70;30.90;;;;;;6007429;29;20050;-71
2022/08/12 02:41:31;;;;;;;12.93;3.47;;;28.70;31.10;;;;;;6007438;29;20124;-71
2022/08/12 02:44:39;;;;;;;5.45;3.05;;;28.70;31.30;;;;;;5992668;29;20408;-72
2022/08/12 02:47:41;;;;;;;5.47;3.20;;;28.60;31.40;;;;;;5991593;29;20042;-71
2022/08/12 02:50:47;;;;;;;4.20;2.90;;;28.60;31.40;;;;;;5991884;29;20105;-71
2022/08/12 02:53:50;;;;;;;4.78;3.13;;;28.60;31.40;;;;;;5992413;29;20387;-71
2022/08/12 02:56:53;;;;;;;8.52;3.08;;;28.60;31.40;;;;;;5991499;29;20053;-72
2022/08/12 02:59:54;;;;;;;5.43;3.83;;;28.60;31.40;;;;;;6007392;29;20502;-72
2022/08/12 03:02:59;;;;;;;3.35;2.85;;;28.60;31.40;;;;;;6009616;29;20041;-71
2022/08/12 03:06:06;;;;;;;5.35;3.78;;;28.60;31.50;;;;;;5983755;29;20473;-72
2022/08/12 03:09:13;;;;;;;5.32;3.45;;;28.50;31.30;;;;;;6008770;29;20403;-72
2022/08/12 03:12:16;;;;;;;4.68;3.20;;;28.50;31.30;;;;;;6007632;29;20065;-71
2022/08/12 03:15:22;;;;;;;5.18;3.10;;;28.40;31.40;;;;;;5991480;29;20418;-71
2022/08/12 03:18:30;;;;;;;11.68;2.80;;;28.40;31.60;;;;;;6010434;29;20129;-72
2022/08/12 03:21:36;;;;;;;3.38;2.70;;;28.30;31.90;;;;;;5991613;29;20030;-73
2022/08/12 03:24:38;;;;;;;7.15;3.30;;;28.30;32.00;;;;;;6007828;29;20076;-73
2022/08/12 03:27:48;;;;;;;4.90;2.80;;;28.30;32.10;;;;;;6008109;29;20107;-71
2022/08/12 03:30:50;;;;;;;5.15;2.95;;;28.30;32.40;;;;;;5992495;29;20038;-72
2022/08/12 03:33:53;;;;;;;4.43;2.88;;;28.20;32.40;;;;;;6011819;29;20424;-71
2022/08/12 03:36:57;;;;;;;8.30;3.58;;;28.20;32.60;;;;;;5990226;29;20050;-72
2022/08/12 03:39:58;;;;;;;7.18;3.08;;;28.10;32.70;;;;;;5995779;29;20120;-72
2022/08/12 04:00:19;;;;;;;5.05;2.75;;;27.80;33.60;;;;;;6009550;29;20160;-71
2022/08/12 04:06:44;;;;;;;9.32;2.80;;;27.70;33.90;;;;;;6008319;29;20042;-71
2022/08/12 04:09:45;;;;;;;4.70;3.20;;;27.60;33.90;;;;;;6005065;29;20061;-71
2022/08/12 04:13:18;;;;;;;5.80;3.15;;;27.60;34.00;;;;;;6009874;29;20145;-73
2022/08/12 04:16:18;;;;;;;7.50;3.17;;;27.50;34.10;;;;;;6008204;29;20038;-72
2022/08/12 04:19:19;;;;;;;3.60;2.53;;;27.40;34.10;;;;;;6012793;29;20052;-72
2022/08/12 04:22:23;;;;;;;3.33;2.75;;;27.40;34.30;;;;;;5993682;29;20038;-72
2022/08/12 04:25:27;;;;;;;8.80;2.90;;;27.40;34.40;;;;;;6009237;29;20429;-72
2022/08/12 04:28:28;;;;;;;7.78;3.03;;;27.30;34.40;;;;;;6003040;29;20046;-72
2022/08/12 04:31:37;;;;;;;9.85;3.22;;;27.30;34.60;;;;;;6008984;29;20142;-72
2022/08/12 04:34:38;;;;;;;11.55;2.88;;;27.30;34.60;;;;;;6008982;29;20038;-72
2022/08/12 04:37:39;;;;;;;5.20;3.38;;;27.30;34.70;;;;;;6008608;29;20041;-72
2022/08/12 04:40:40;;;;;;;5.57;3.22;;;27.30;34.80;;;;;;6010104;29;20034;-72
2022/08/12 04:43:41;;;;;;;7.15;3.00;;;27.30;34.90;;;;;;5991364;29;20057;-72
2022/08/12 04:46:42;;;;;;;4.60;3.10;;;27.30;35.00;;;;;;6009659;29;20371;-72
2022/08/12 04:49:46;;;;;;;5.85;3.15;;;27.30;34.90;;;;;;6009723;29;20045;-72
2022/08/12 04:52:48;;;;;;;4.45;2.92;;;27.30;34.90;;;;;;5992299;29;20095;-72
2022/08/12 04:55:51;;;;;;;4.25;3.20;;;27.30;34.80;;;;;;6009041;29;20041;-72
2022/08/12 04:58:51;;;;;;;7.60;3.00;;;27.30;34.80;;;;;;5994657;29;20038;-71
2022/08/12 05:01:52;;;;;;;4.22;2.90;;;27.30;34.80;;;;;;6010031;29;20057;-72
2022/08/12 05:04:57;;;;;;;6.63;2.97;;;27.30;34.80;;;;;;5993745;29;20137;-71
2022/08/12 05:07:58;;;;;;;14.15;2.60;;;27.20;34.60;;;;;;6010870;29;20049;-72
2022/08/12 05:11:00;;;;;;;4.65;2.78;;;27.30;34.60;;;;;;6010447;29;20098;-72
2022/08/12 05:14:01;;;;;;;3.75;2.60;;;27.30;34.60;;;;;;5994409;29;20068;-72
2022/08/12 05:17:02;;;;;;;6.35;3.17;;;27.30;34.60;;;;;;6010305;29;20061;-71
2022/08/12 05:20:03;;;;;;;7.63;2.75;;;27.30;34.60;;;;;;5993851;29;20045;-72
2022/08/12 05:23:13;;;;;;;8.70;3.20;;;27.30;34.80;;;;;;6009979;29;20041;-72
2022/08/12 05:26:14;;;;;;;4.07;3.03;;;27.30;34.90;;;;;;5995019;29;20072;-71
2022/08/12 05:29:15;;;;;;;4.55;3.08;;;27.30;35.00;;;;;;6009041;29;20073;-71
2022/08/12 05:32:19;;;;;;;4.15;2.60;;;27.30;35.00;;;;;;6007679;29;20046;-72
2022/08/12 05:35:21;;;;;;;3.65;2.92;;;27.20;34.90;;;;;;6008029;29;20121;-72
2022/08/12 05:41:41;;;;;;;5.63;3.08;;;27.20;35.60;;;;;;5993216;29;20041;-73
2022/08/12 05:44:43;;;;;;;7.63;3.65;;;27.10;35.10;;;;;;6008771;29;20054;-73
2022/08/12 05:47:44;;;;;;;9.38;3.45;;;27.10;35.20;;;;;;6009575;29;20106;-72
2022/08/12 05:50:46;;;;;;;6.88;4.07;;;27.10;35.20;;;;;;6007660;29;20097;-71
2022/08/12 05:53:47;;;;;;;7.10;4.15;;;27.10;35.30;;;;;;6007942;29;20034;-71
2022/08/12 05:56:48;;;;;;;7.10;3.80;;;27.20;35.30;;;;;;6008067;29;20046;-71
2022/08/12 05:59:49;;;;;;;8.32;3.95;;;27.20;35.20;;;;;;6009488;29;20501;-71
2022/08/12 06:02:59;;;;;;;12.45;3.90;;;27.20;35.20;;;;;;6020928;29;20083;-73
2022/08/12 06:06:00;;;;;;;10.07;3.15;;;27.30;35.20;;;;;;6007053;29;20076;-73
2022/08/12 06:09:02;;;;;;;11.32;3.17;;;27.30;35.20;;;;;;6008200;29;20348;-71
2022/08/12 06:12:03;;;;;;;6.20;3.22;;;27.40;35.30;;;;;;6007760;29;20395;-74
2022/08/12 06:15:04;;;;;;;7.85;4.00;;;27.40;35.30;;;;;;6023058;29;20103;-71
2022/08/12 06:18:08;;;;;;;6.07;3.50;;;27.30;35.30;;;;;;5992881;29;20508;-70
2022/08/12 06:21:10;;;;;;;8.77;3.47;;;27.30;35.40;;;;;;5989284;29;20041;-72
2022/08/12 06:24:12;;;;;;;7.78;3.30;;;27.40;35.40;;;;;;6011663;29;20110;-73
2022/08/12 06:27:16;;;;;;;8.18;3.13;;;27.40;35.20;;;;;;6007993;29;20138;-72
2022/08/12 06:30:20;;;;;;;8.27;3.10;;;27.40;35.10;;;;;;6009120;29;20044;-72
2022/08/12 06:33:21;;;;;;;11.88;2.60;;;27.50;35.10;;;;;;6014102;29;20145;-71
2022/08/12 06:36:23;;;;;;;4.30;3.03;;;27.50;35.00;;;;;;6008377;29;20596;-72
2022/08/12 06:39:24;;;;;;;7.50;3.22;;;27.50;34.80;;;;;;6007505;29;20384;-72
2022/08/12 06:45:48;;;;;;;9.90;3.20;;;27.60;34.60;;;;;;6007594;29;20053;-72
2022/08/12 06:48:50;;;;;;;4.75;2.83;;;27.70;34.40;;;;;;5991906;29;20074;-72
2022/08/12 06:51:54;;;;;;;8.82;3.55;;;27.70;34.20;;;;;;5976836;29;20038;-71
2022/08/12 06:54:55;;;;;;;3.55;2.80;;;27.80;34.20;;;;;;5988223;29;20045;-71
2022/08/12 06:58:00;;;;;;;7.28;2.78;;;27.90;34.00;;;;;;5976398;29;20365;-72
2022/08/12 07:01:01;;;;;;;6.43;3.30;;;27.90;33.80;;;;;;6008271;29;20042;-73
2022/08/12 07:04:02;;;;;;;3.92;2.55;;;28.00;33.80;;;;;;6009909;29;20112;-71
2022/08/12 07:07:05;;;;;;;8.00;3.30;;;28.10;33.70;;;;;;5973793;29;20038;-73
2022/08/12 07:10:07;;;;;;;3.88;2.97;;;28.10;33.60;;;;;;5996639;29;20034;-72
2022/08/12 07:13:08;;;;;;;5.97;3.35;;;28.20;33.60;;;;;;6012090;29;20042;-73
2022/08/12 07:16:12;;;;;;;4.60;2.80;;;28.30;33.60;;;;;;6013050;29;20121;-73
2022/08/12 07:19:14;;;;;;;7.15;3.03;;;28.40;33.50;;;;;;6014730;29;20046;-71
2022/08/12 07:22:16;;;;;;;7.47;3.53;;;28.40;33.20;;;;;;6012388;29;20399;-73
2022/08/12 07:25:29;;;;;;;5.07;3.20;;;28.50;33.20;;;;;;6007560;29;20038;-72
2022/08/12 07:28:34;;;;;;;5.07;3.15;;;28.50;33.30;;;;;;6012341;29;20380;-72
2022/08/12 07:31:38;;;;;;;4.75;3.20;;;28.60;33.40;;;;;;6012344;29;20042;-72
2022/08/12 07:34:42;;;;;;;5.50;3.38;;;28.70;33.40;;;;;;5996360;29;20074;-73
2022/08/12 07:37:43;;;;;;;7.03;3.47;;;28.80;33.30;;;;;;5999683;29;20121;-72
2022/08/12 07:40:44;;;;;;;3.78;2.85;;;28.90;33.00;;;;;;6011941;29;20049;-72
2022/08/12 07:43:52;;;;;;;4.43;2.80;;;29.00;32.70;;;;;;5995731;29;20071;-73
2022/08/12 07:46:53;;;;;;;6.32;2.95;;;29.00;32.30;;;;;;5995546;29;20109;-72
2022/08/12 07:49:55;;;;;;;4.68;2.83;;;29.20;32.00;;;;;;6001304;29;20328;-72
2022/08/12 07:52:58;;;;;;;4.57;3.40;;;29.30;31.80;;;;;;5994702;29;20045;-72
2022/08/12 07:55:59;;;;;;;3.85;2.80;;;29.40;31.70;;;;;;5995344;29;20030;-72
2022/08/12 07:59:01;;;;;;;4.80;3.05;;;29.60;31.60;;;;;;6011695;29;20544;-73
2022/08/12 08:02:03;;;;;;;5.22;3.15;;;29.70;31.10;;;;;;6011005;29;20054;-72
2022/08/12 08:05:04;;;;;;;7.55;3.10;;;29.80;30.80;;;;;;5995977;29;20098;-74
2022/08/12 08:08:14;;;;;;;5.82;3.08;;;29.90;30.70;;;;;;6011724;29;20045;-73
2022/08/12 08:14:34;;;;;;;3.55;2.80;;;30.00;30.40;;;;;;6019185;29;20045;-72
2022/08/12 08:17:38;;;;;;;9.60;3.15;;;30.10;30.00;;;;;;5979660;29;20427;-72
2022/08/12 08:20:41;;;;;;;8.07;3.17;;;30.20;30.00;;;;;;6011815;29;20033;-72
2022/08/12 08:27:01;;;;;;;4.72;3.28;;;30.50;29.70;;;;;;6011590;29;20042;-72
2022/08/12 08:30:03;;;;;;;3.90;2.97;;;30.60;29.60;;;;;;6011769;29;20050;-72
2022/08/12 08:33:08;;;;;;;4.10;2.58;;;30.80;29.50;;;;;;6012030;29;20038;-72
2022/08/12 08:36:09;;;;;;;3.83;3.08;;;30.90;29.10;;;;;;6011575;29;20121;-73
2022/08/12 08:39:11;;;;;;;7.65;3.20;;;30.90;28.90;;;;;;6011689;29;20042;-73
2022/08/12 08:45:31;;;;;;;3.55;2.78;;;30.90;29.00;;;;;;6004851;29;20042;-71
2022/08/12 08:48:33;;;;;;;7.15;2.83;;;31.00;29.10;;;;;;5995136;29;20049;-72
2022/08/12 08:51:35;;;;;;;5.28;3.25;;;31.20;29.20;;;;;;6011046;29;20050;-72
2022/08/12 08:54:36;;;;;;;7.30;2.83;;;31.30;29.10;;;;;;6011181;29;20041;-72
2022/08/12 08:57:39;;;;;;;20.08;4.10;;;31.50;29.10;;;;;;6009969;29;20090;-74
2022/08/12 09:00:41;;;;;;;6.70;3.33;;;31.60;29.40;;;;;;6010401;29;20086;-72
2022/08/12 09:03:42;;;;;;;10.80;3.78;;;31.70;28.90;;;;;;6010744;29;20045;-73
2022/08/12 09:06:43;;;;;;;8.05;3.88;;;31.90;28.80;;;;;;5999940;29;20038;-72
2022/08/12 09:09:44;;;;;;;11.23;3.38;;;32.10;28.80;;;;;;5995158;29;20073;-73
2022/08/12 09:16:06;;;;;;;5.35;3.20;;;32.20;28.70;;;;;;5994493;29;20131;-72
2022/08/12 09:19:09;;;;;;;8.60;3.20;;;32.40;28.60;;;;;;5998843;29;20215;-72
2022/08/12 09:22:10;;;;;;;4.63;3.15;;;32.50;28.60;;;;;;5994416;29;20467;-72
2022/08/12 09:25:11;;;;;;;8.82;3.10;;;32.60;28.50;;;;;;5994506;29;20460;-73
2022/08/12 09:28:11;;;;;;;6.75;2.72;;;32.70;28.40;;;;;;6010079;29;20106;-73
2022/08/12 09:31:12;;;;;;;8.30;2.90;;;32.70;28.30;;;;;;5994319;29;20434;-73
2022/08/12 09:34:14;;;;;;;4.03;2.95;;;32.70;28.30;;;;;;5995142;29;20046;-71
2022/08/12 09:37:15;;;;;;;6.47;3.70;;;32.70;28.20;;;;;;6010078;29;20045;-73
2022/08/12 09:40:17;;;;;;;6.63;2.95;;;32.80;28.30;;;;;;5994235;29;20117;-72
2022/08/12 09:46:40;;;;;;;4.22;3.28;;;32.90;28.10;;;;;;6009062;29;20045;-72
2022/08/12 09:49:41;;;;;;;6.40;2.65;;;33.00;28.00;;;;;;5978039;29;20041;-72
2022/08/12 09:52:44;;;;;;;11.52;3.20;;;33.10;27.80;;;;;;6009816;29;20053;-72
2022/08/12 09:55:47;;;;;;;11.68;2.90;;;33.20;27.70;;;;;;5993972;29;20052;-72
2022/08/12 09:58:49;;;;;;;10.60;3.25;;;33.20;27.50;;;;;;5994028;29;20121;-72
2022/08/12 10:01:50;;;;;;;4.75;3.45;;;33.20;27.50;;;;;;6009744;29;20042;-73
2022/08/12 10:04:51;;;;;;;7.75;2.92;;;33.20;27.50;;;;;;6009722;29;20069;-72
2022/08/12 10:07:52;;;;;;;5.60;2.80;;;33.20;27.40;;;;;;5978443;29;20048;-73
2022/08/12 10:14:12;;;;;;;3.25;2.63;;;33.40;27.10;;;;;;6010128;29;20040;-73
2022/08/12 10:17:13;;;;;;;5.43;3.00;;;33.40;26.90;;;;;;6008479;29;20037;-72
2022/08/12 10:20:14;;;;;;;5.72;2.92;;;33.50;26.80;;;;;;5991338;29;20045;-73
2022/08/12 10:23:15;;;;;;;6.65;2.78;;;33.60;26.80;;;;;;5990627;29;20077;-72
2022/08/12 10:29:44;;;;;;;4.97;3.13;;;33.70;26.70;;;;;;6007695;29;20042;-72
2022/08/12 10:32:58;;;;;;;5.93;2.60;;;33.90;26.70;;;;;;6001736;29;20073;-71
2022/08/12 10:36:00;;;;;;;8.32;3.25;;;34.00;26.50;;;;;;5994735;29;20034;-72
2022/08/12 10:39:02;;;;;;;4.63;2.95;;;34.00;26.30;;;;;;5998065;29;20050;-71
2022/08/12 10:45:31;;;;;;;3.42;2.53;;;34.10;26.00;;;;;;5994525;29;20076;-72
2022/08/12 10:48:32;;;;;;;3.75;2.50;;;34.30;25.90;;;;;;6015048;29;20411;-74
2022/08/12 10:51:33;;;;;;;5.70;2.90;;;34.30;25.80;;;;;;6015508;29;20046;-73
2022/08/12 10:54:34;;;;;;;9.07;2.40;;;34.40;25.90;;;;;;6014998;29;20042;-73
2022/08/12 10:57:35;;;;;;;5.38;2.40;;;34.50;25.90;;;;;;6014443;29;20051;-72
2022/08/12 11:00:37;;;;;;;9.60;2.70;;;34.90;25.70;;;;;;6014305;29;20516;-72
2022/08/12 11:03:41;;;;;;;8.23;2.65;;;35.40;25.30;;;;;;6014357;29;20049;-72
2022/08/12 11:06:47;;;;;;;5.45;2.83;;;35.90;24.90;;;;;;6013341;29;20037;-74
2022/08/12 11:09:48;;;;;;;7.88;2.35;;;36.40;24.60;;;;;;6000188;29;20468;-74
2022/08/12 11:12:49;;;;;;;4.15;2.60;;;36.80;24.20;;;;;;6016459;29;20066;-74
2022/08/12 11:15:51;;;;;;;3.53;2.17;;;37.30;23.80;;;;;;5999539;29;20115;-73
2022/08/12 11:18:52;;;;;;;4.57;2.10;;;37.80;23.30;;;;;;5999706;29;20429;-72
2022/08/12 11:21:54;;;;;;;3.75;2.30;;;38.10;22.60;;;;;;5992635;29;20063;-73
2022/08/12 11:24:55;;;;;;;4.45;1.92;;;38.40;22.10;;;;;;5991386;29;20113;-73
2022/08/12 11:27:56;;;;;;;3.28;1.98;;;38.50;21.20;;;;;;6014503;29;20429;-74
2022/08/12 11:30:56;;;;;;;4.32;2.17;;;38.60;20.70;;;;;;5984098;29;20026;-73
2022/08/12 11:33:57;;;;;;;3.95;1.90;;;38.70;20.80;;;;;;5984388;29;20038;-74
2022/08/12 11:37:06;;;;;;;5.05;1.67;;;39.00;20.20;;;;;;5998172;29;20053;-73
2022/08/12 11:40:07;;;;;;;2.42;1.60;;;39.20;20.00;;;;;;5987090;29;20046;-73
2022/08/12 11:43:08;;;;;;;2.17;1.60;;;39.30;19.40;;;;;;6013425;29;20053;-73
2022/08/12 11:46:09;;;;;;;2.53;1.88;;;39.40;19.40;;;;;;6015158;29;20033;-73
2022/08/12 11:49:11;;;;;;;2.80;1.60;;;39.40;19.00;;;;;;6015562;29;20126;-73
2022/08/12 11:52:11;;;;;;;7.22;1.95;;;39.60;19.10;;;;;;6011243;29;20061;-73
2022/08/12 11:55:12;;;;;;;4.18;2.00;;;39.70;18.90;;;;;;6011764;29;20079;-73
2022/08/12 11:58:13;;;;;;;4.25;1.50;;;39.90;18.90;;;;;;6010405;29;20053;-73
2022/08/12 12:01:14;;;;;;;3.40;1.58;;;40.00;18.40;;;;;;6010233;29;20472;-74
2022/08/12 12:04:15;;;;;;;8.43;1.70;;;40.10;17.90;;;;;;5994664;29;20049;-74
2022/08/12 12:07:16;;;;;;;7.65;1.80;;;40.30;17.30;;;;;;6010166;29;20038;-75
2022/08/12 12:10:18;;;;;;;1.60;1.33;;;40.50;17.10;;;;;;6011367;29;20423;-74
2022/08/12 12:13:20;;;;;;;2.92;1.58;;;40.70;16.70;;;;;;6011458;29;20137;-74
2022/08/12 12:16:21;;;;;;;2.08;1.45;;;40.90;16.80;;;;;;6009718;29;20072;-73
2022/08/12 12:19:22;;;;;;;1.90;1.73;;;41.10;16.30;;;;;;6010154;29;20376;-73
2022/08/12 12:22:23;;;;;;;2.75;1.70;;;41.40;16.50;;;;;;6013051;29;20057;-74
2022/08/12 12:25:23;;;;;;;5.35;1.77;;;41.50;16.40;;;;;;6013393;29;20069;-74
2022/08/12 12:28:24;;;;;;;9.10;1.80;;;41.80;16.50;;;;;;6009873;29;20042;-74
2022/08/12 12:31:25;;;;;;;2.25;2.05;;;41.80;15.90;;;;;;6010816;29;20365;-74
2022/08/12 12:34:26;;;;;;;2.58;2.05;;;41.80;15.70;;;;;;6009368;29;20045;-74
2022/08/12 12:37:27;;;;;;;2.55;1.73;;;41.70;15.70;;;;;;5994024;29;20042;-73
2022/08/12 12:40:30;;;;;;;2.03;1.65;;;41.90;15.70;;;;;;6004682;29;20061;-74
2022/08/12 12:43:31;;;;;;;1.85;1.50;;;42.00;15.70;;;;;;6009472;29;20077;-74
2022/08/12 12:46:32;;;;;;;4.72;1.52;;;42.20;15.50;;;;;;5994302;29;20041;-74
2022/08/12 12:49:33;;;;;;;2.50;2.10;;;42.40;15.40;;;;;;6000727;29;20133;-74
2022/08/12 12:52:34;;;;;;;5.43;1.70;;;42.60;14.90;;;;;;5993123;29;20125;-74
2022/08/12 12:55:36;;;;;;;3.00;1.30;;;43.00;14.60;;;;;;6007855;29;20038;-74
2022/08/12 12:58:38;;;;;;;2.55;1.48;;;43.40;14.30;;;;;;5993969;29;20048;-73
2022/08/12 13:01:42;;;;;;;1.50;1.40;;;43.70;14.00;;;;;;6010222;29;20064;-73
2022/08/12 13:04:42;;;;;;;1.58;1.48;;;44.00;13.40;;;;;;6008892;29;20379;-74
2022/08/12 13:07:46;;;;;;;3.85;1.27;;;44.40;13.30;;;;;;6009137;29;20049;-73
2022/08/12 13:10:48;;;;;;;1.88;1.60;;;44.70;13.10;;;;;;6014098;29;20363;-74
2022/08/12 13:13:49;;;;;;;5.18;1.30;;;45.20;13.30;;;;;;6009293;29;20098;-74
2022/08/12 13:16:51;;;;;;;2.83;1.40;;;45.60;12.90;;;;;;5988198;29;20045;-73
2022/08/12 13:19:53;;;;;;;1.60;1.20;;;46.10;12.40;;;;;;6007976;29;20129;-74
2022/08/12 13:22:54;;;;;;;1.45;1.20;;;46.50;12.30;;;;;;6009605;29;20041;-73
2022/08/12 13:25:55;;;;;;;4.53;1.35;;;46.90;11.70;;;;;;5990064;29;20042;-74
2022/08/12 13:28:56;;;;;;;5.68;1.40;;;47.00;11.50;;;;;;6009439;29;20045;-75
2022/08/12 13:32:01;;;;;;;1.48;1.38;;;47.20;11.40;;;;;;6009039;29;20058;-74
2022/08/12 13:35:03;;;;;;;1.85;1.35;;;47.80;11.00;;;;;;5993485;29;20038;-74
2022/08/12 13:38:09;;;;;;;3.97;1.20;;;48.40;10.80;;;;;;6009350;29;20049;-74
2022/08/12 13:41:36;;;;;;;1.30;1.20;;;48.90;10.60;;;;;;6005853;29;20046;-74
2022/08/12 13:44:36;;;;;;;2.55;1.17;;;49.00;10.60;;;;;;6003499;29;20448;-74
2022/08/12 13:48:00;;;;;;;1.65;1.40;;;49.30;10.20;;;;;;6008187;29;20034;-75
2022/08/12 13:51:01;;;;;;;3.40;1.33;;;49.50;10.10;;;;;;6002354;29;20053;-74
2022/08/12 13:54:05;;;;;;;4.45;1.48;;;49.60;9.90;;;;;;6006543;29;20058;-73
2022/08/12 13:57:08;;;;;;;2.67;1.20;;;49.70;9.80;;;;;;5991021;29;20114;-75
2022/08/12 14:00:11;;;;;;;3.70;1.30;;;49.70;9.50;;;;;;6006911;29;20046;-74
2022/08/12 14:03:13;;;;;;;1.33;1.23;;;49.90;9.60;;;;;;6000760;29;20038;-74
2022/08/12 14:06:14;;;;;;;1.65;1.23;;;50.00;9.50;;;;;;5990218;29;20121;-74
2022/08/12 14:09:15;;;;;;;3.85;1.60;;;50.00;9.80;;;;;;5991243;29;20050;-74
2022/08/12 14:12:17;;;;;;;1.85;1.23;;;50.10;10.00;;;;;;6001560;29;20041;-74
2022/08/12 14:15:18;;;;;;;1.40;1.30;;;50.10;9.80;;;;;;5990925;29;20122;-74
2022/08/12 14:18:21;;;;;;;1.30;1.20;;;50.20;10.50;;;;;;6007190;29;20041;-75
2022/08/12 14:21:22;;;;;;;1.55;1.23;;;50.10;10.00;;;;;;5990083;29;20224;-74
2022/08/12 14:24:23;;;;;;;3.67;1.40;;;50.00;10.10;;;;;;5990270;29;20054;-74
2022/08/12 14:27:27;;;;;;;1.98;1.50;;;50.20;10.10;;;;;;6007247;29;20465;-74
2022/08/12 14:30:28;;;;;;;3.75;1.27;;;50.50;10.00;;;;;;5992483;29;20479;-75
2022/08/12 14:33:34;;;;;;;2.55;1.10;;;50.50;10.00;;;;;;6003314;29;20046;-74
2022/08/12 14:36:35;;;;;;;1.70;1.35;;;50.10;9.90;;;;;;5990848;29;20499;-74
2022/08/12 14:39:36;;;;;;;3.40;1.50;;;49.70;10.30;;;;;;5975474;29;20042;-74
2022/08/12 14:42:37;;;;;;;3.67;1.25;;;48.60;10.90;;;;;;6006998;29;20503;-73
2022/08/12 14:45:39;;;;;;;2.10;1.48;;;47.20;11.60;;;;;;6005200;29;20045;-72
2022/08/12 14:48:43;;;;;;;2.55;1.20;;;45.80;12.50;;;;;;5990920;29;20038;-73
2022/08/12 14:51:44;;;;;;;3.20;1.27;;;44.50;12.40;;;;;;6006783;29;20041;-74
2022/08/12 14:54:44;;;;;;;1.05;1.05;;;43.60;12.80;;;;;;5989757;29;20045;-73
2022/08/12 14:58:03;;;;;;;2.13;1.63;;;42.70;13.20;;;;;;6006931;29;20046;-73
2022/08/12 15:04:27;;;;;;;1.88;1.58;;;41.00;13.90;;;;;;6006492;29;20045;-73
2022/08/12 15:07:29;;;;;;;4.63;1.70;;;40.50;14.30;;;;;;6013453;29;20030;-72
2022/08/12 15:10:30;;;;;;;4.55;1.45;;;40.10;14.30;;;;;;5991518;29;20125;-73
2022/08/12 15:13:32;;;;;;;2.80;1.27;;;39.70;14.40;;;;;;5991882;29;20105;-72
2022/08/12 15:16:33;;;;;;;2.40;1.88;;;39.40;14.50;;;;;;5998472;29;20054;-73
2022/08/12 15:19:34;;;;;;;1.83;1.50;;;39.20;14.80;;;;;;6009789;29;20052;-73
2022/08/12 15:22:35;;;;;;;1.08;1.00;;;39.00;15.20;;;;;;5991730;29;20038;-73
2022/08/12 15:25:39;;;;;;;2.38;1.30;;;38.80;15.40;;;;;;6007518;29;20153;-73
2022/08/12 15:28:43;;;;;;;2.17;1.40;;;38.60;15.90;;;;;;5994498;29;20087;-73
2022/08/12 15:31:44;;;;;;;4.05;1.40;;;38.50;16.30;;;;;;5995662;29;20475;-73
2022/08/12 15:34:45;;;;;;;3.10;1.60;;;38.50;16.40;;;;;;5986406;29;20049;-72
2022/08/12 15:37:57;;;;;;;2.80;1.63;;;38.60;16.50;;;;;;6010856;29;20114;-73
2022/08/12 15:40:59;;;;;;;2.95;1.70;;;38.90;16.70;;;;;;5995184;29;20033;-72
2022/08/12 15:43:59;;;;;;;2.42;1.50;;;40.20;16.10;;;;;;6011199;29;20049;-73
2022/08/12 15:47:00;;;;;;;2.33;1.50;;;42.00;15.50;;;;;;5979888;29;20480;-73
2022/08/12 15:50:01;;;;;;;2.13;1.67;;;43.60;14.70;;;;;;5994036;29;20045;-73
2022/08/12 15:53:04;;;;;;;6.28;1.60;;;44.90;13.80;;;;;;5993810;29;20037;-73
2022/08/12 15:56:06;;;;;;;2.15;1.40;;;45.90;13.20;;;;;;6010253;29;20026;-73
2022/08/12 15:59:07;;;;;;;3.88;1.33;;;46.70;12.80;;;;;;6010635;29;20113;-73
2022/08/12 16:02:08;;;;;;;2.65;1.77;;;47.10;12.40;;;;;;6006806;29;20443;-74
2022/08/12 16:05:09;;;;;;;1.90;1.25;;;47.50;12.20;;;;;;6005605;29;20030;-73
2022/08/12 16:08:10;;;;;;;2.15;1.20;;;48.00;12.10;;;;;;5989553;29;20040;-73
2022/08/12 16:11:12;;;;;;;4.65;1.48;;;48.30;11.90;;;;;;6010918;29;20038;-74
2022/08/12 16:14:14;;;;;;;3.50;1.30;;;48.70;11.60;;;;;;5995018;29;20041;-74
2022/08/12 16:17:15;;;;;;;2.10;1.45;;;48.80;11.30;;;;;;5994756;29;20117;-74
2022/08/12 16:20:21;;;;;;;2.28;1.40;;;48.70;11.10;;;;;;5997090;29;20057;-75
2022/08/12 16:23:22;;;;;;;4.85;1.45;;;48.50;11.20;;;;;;5979147;29;20121;-74
2022/08/12 16:26:23;;;;;;;1.30;1.10;;;48.40;11.10;;;;;;5995018;29;20038;-73
2022/08/12 16:29:32;;;;;;;1.58;1.15;;;48.50;11.00;;;;;;6010752;29;20049;-73
2022/08/12 16:32:34;;;;;;;1.13;1.00;;;48.40;10.80;;;;;;5994324;29;20042;-73
2022/08/12 16:35:39;;;;;;;1.38;1.27;;;47.90;10.60;;;;;;5994355;29;20452;-74
2022/08/12 16:38:41;;;;;;;3.38;1.35;;;46.80;11.00;;;;;;6009669;29;20069;-73
2022/08/12 16:41:42;;;;;;;4.05;1.45;;;45.40;11.50;;;;;;5994424;29;20053;-73
2022/08/12 16:44:43;;;;;;;1.70;1.20;;;44.00;12.10;;;;;;6009345;29;20038;-73
2022/08/12 16:47:44;;;;;;;2.50;1.27;;;42.90;12.40;;;;;;6009992;29;20106;-73
2022/08/12 16:50:48;;;;;;;1.85;1.42;;;41.80;12.50;;;;;;6010557;29;20038;-73
2022/08/12 16:53:49;;;;;;;1.05;1.00;;;41.00;12.90;;;;;;6011268;29;20066;-73
2022/08/12 16:56:53;;;;;;;2.90;1.20;;;40.30;13.00;;;;;;6011868;29;20121;-72
2022/08/12 16:59:54;;;;;;;1.35;1.17;;;39.70;13.20;;;;;;6010185;29;20058;-73
2022/08/12 17:02:56;;;;;;;1.98;1.40;;;39.20;13.50;;;;;;6010609;29;20056;-73
2022/08/12 17:05:57;;;;;;;1.17;1.08;;;38.80;13.70;;;;;;6010432;29;20365;-73
2022/08/12 17:09:03;;;;;;;1.40;1.30;;;38.50;13.70;;;;;;6009531;29;20037;-73
2022/08/12 17:12:04;;;;;;;1.10;1.00;;;38.20;13.50;;;;;;6011432;29;20041;-73
2022/08/12 17:15:09;;;;;;;2.70;1.50;;;38.00;13.70;;;;;;6018440;29;20097;-73
2022/08/12 17:18:11;;;;;;;4.95;1.38;;;37.80;13.70;;;;;;6010013;29;20038;-73
2022/08/12 17:21:14;;;;;;;2.08;1.25;;;37.60;13.80;;;;;;6011258;29;20636;-73
2022/08/12 17:24:18;;;;;;;2.25;1.10;;;37.40;13.90;;;;;;6009778;29;20459;-73
2022/08/12 17:27:20;;;;;;;1.52;1.05;;;37.30;14.00;;;;;;6024782;29;20038;-73
2022/08/12 17:30:21;;;;;;;4.68;1.55;;;37.10;14.00;;;;;;5994787;29;20342;-73
2022/08/12 17:33:22;;;;;;;1.40;1.30;;;37.00;14.40;;;;;;6010643;29;20486;-73
2022/08/12 17:36:23;;;;;;;1.85;1.35;;;36.90;14.30;;;;;;6010695;29;20049;-73
2022/08/12 17:39:24;;;;;;;2.13;1.52;;;36.80;14.40;;;;;;6010548;29;20137;-72
2022/08/12 17:42:24;;;;;;;1.15;1.02;;;36.60;14.70;;;;;;6009669;29;20064;-73
2022/08/12 17:45:28;;;;;;;3.78;1.30;;;36.60;14.90;;;;;;6004876;29;20066;-72